Hlavní strana
METAR-TAF:

METAR-TAF

Letiště :

Jekatěrinburg, Rusko

zeměpisná šířka: 56-50N, zeměpisná délka: 060-38E, výška: 237 m

Aktuální stav počasí

Zpráva byla vytvořena před 23 minutami, v 14:00 UTC
Jihovýchodní vítr 10 kt
Teplota -9°C
Vlhkost vzduchu 79%
Tlak 1026 hPa
Viditelnost 10 km a více
Žádná oblačnost pod 1500 m, nevyskytují se cumulonimby.

METAR: USSS 251400Z 13005MPS CAVOK M09/M12 Q1026 R08L/110050 NOSIG RMK QFE750/1000

Čas: 19:23 (14:23 UTC)

Předpověď počasí

Zpráva byla vytvořena před 3 hodinami a 27 minutami, v 10:56 UTC
Předpověď platná od 25 v 12 UTC do 26 v 12 UTC
Jihovýchodní vítr 6 kt s nárazy do 23 kt
Viditelnost 10 km a více
Žádná oblačnost pod 1500 m, nevyskytují se cumulonimby.
Změna
od 25 v 15 UTC do 25 v 17 UTC
Viditelnost: 6000 m
Oblačno až skoro zataženo ve výšce 1100 ft
slabé sněžení

TAF: USSS 251056Z 2512/2612 14003G12MPS CAVOK BECMG 2515/2517 6000 -SN BKN011

Stav a předpovědi počasí z více než 4 000 letišť (zprávy METAR a TAF).

Červené a žluté tečky na mapě představují dostupné meteorologické stanice.

Když kurzor umístíte na tečku, zobrazí se název stanice.

Pak kliknutím zobrazíte stav a předpověď počasí.

Chcete-li změnit mapu, kliknutím na zelené tlačítko se znaménkem +mapu přiblížíte, kliknutím na zelené tlačítko se znaménkem – mapu oddálíte a kliknutím na zelené šipky přejdete na sousední mapy.


METAR-TAF: